Scroll down
FLIGHT INFORMATION
Federal Express (FedEx)

FDX853

At Arrival Gate

KDEN
 KMEM
DATE: 2022-05-21
GATE: 4
GATE DEPARTURE: 14:07
TAKEOFF: 14:17
DATE: 2022-05-21
GATE:  -
LANDING: 15:59
GATE ARRIVAL: 16:08
FLIGHT DATA
Crew: 
Speed: 
533 kts
Altitude: 
39,012 ft
Stage Length: 
756.7 nm
Block Time: 
2 hrs
Flight Time: 
1.7 hrs
Fuel Used: 
22,065 lb
Cleared Route: KDEN DUUZE RASCL RZC KMEM
TRACK DATA
50,000 ft 1,000 kts
AIRCRAFT INFO AND CUMULATIVE STATS
Aircraft Type: 
B77LF
Registration: 
SELCAL: 
FLBC
MSN/LN: 
41749 / 1152
Total Flights: 
6
Total Block Time: 
30.5 hrs
Total Flight Time: 
28.9 hrs
Total Fuel Used: 
489,030 lb
DATALINK LOG | Newest first | Current as of: 2022-09-27 09:05:26
LABEL SEQUENCE CONTENT Dn/Up
QD101516:08 15.7▼ Dn
QC010715:59▼ Dn
2U5305KMEM 212154Z 17009KT 10SM BKN200 BKN230 25/21 A2995 RMK AO2 LTG DSNT SE AND S RAE14 TSE00 SLP138 P0000 T02500206▲ Up
2S5304KMEM▼ Dn
QB193114:17▼ Dn
QA092214:07 37.9▼ Dn
2U4903KDEN 212053Z 00000KT 10SM BKN050 BKN120 BKN220 07/M04 A3025 RMK AO2 SLP237 T00671044 56005 $▲ Up
2U4902KMEM 212101Z 17011KT 10SM -RA FEW032 BKN090 OVC100 22/19 A2995 RMK AO2 LTG DSNT NE-S TSE00 P0000 T02220194▲ Up
2S4902KDEN KMEM▼ Dn
A34559CLEARED TO KMEM VIA EPKEE7 DUUZE RASCL RZC BRBBQ3. SQUAWK 4033.▲ Up
Q04458[LINK ACK]▲ Up
Q04458[LINK TEST]▼ Dn


AIRCRAFT HISTORY
FLIGHT DATE FLIGHT NO. ORIGIN DESTINATION CLEARED ROUTE BLOCK TIME FLIGHT TIME FUEL USED PILOT
2022-05-21FDX853KDEN KMEM KDEN DUUZE RASCL RZC KMEM2 hrs1.7 hrs22,065 lbAllan Burek
2022-05-14FDX820KBUR KDEN KBUR RAYVE SLAPP YAAPY JETHK BBITE ANTLP NNAVY BLAZN LAS BEALE NOOTN BETHL FREDD DICEE BUMMP SNOEE BOWLL ABASN KTOOO SSKII BGDEE TLRID ZATUT LOOOP HUDPI QWIKE JOSEE RW17R2.1 hrs1.8 hrs26,961 lbPete L.
2022-05-12FDX751KMEM KBUR KMEM PEPOC CHLDR ANSWA LIT MEEOW GLOVE DECOD BYP MQP ABI CME HONDS CNX ONM SJN CHEAR PAYSO NABOB DRK CHILY EED COOOP TAAAP JOEES DNUTT JOHHN BASAL DYVER CHKNZ KOPLE PMD JANNY PUCCK ELMRR WABBT RW083.9 hrs3.6 hrs60,030 lbPete L.
2021-11-23FDX9072RJAA KMEM RJAA ARIES A4L11 A4L12 A4L13 A4L14 ROONY CHUMS CUPID GULBO KALNA 43E60 45E70 46E80 47N70 48N60 48N50 48N40 ROUKE SEA STEVS ZAXUL LEZLE BAXGO GANNE MBW MOCTU LEWOY CUGGA PENUT KIRKE RASCL ICT BURDN CHELI COODY RZC MARBI IGLOO SAUCC BRBBQ FNCHR RDEEE JESTI BEERT LOONR BOWEN JIMGA JAYWA HADAN RW36R11.8 hrs11.4 hrs214,747 lbDan Downs
2021-11-22FDX15PANC RJAA PANC NODLE NICHO NOSHO NEONN NANZA NOLTI NAYLD NULUK NANDY NATES NIKLL NYMPH NUZAN NRKEY NIPPI NOGAL NUBDA NANNO NODAN NANAC ESNIP LOSVA AKRIT OLDIV LESPO SUPOK PLOKY UNARI CORGI ELGAR RW34L7.7 hrs7.4 hrs121,382 lbDan Downs
2021-03-08FDX17KSEA PANC KSEA PANGL YZT YZP FRIED EEDEN SNOUT MDO PANC3.1 hrs2.9 hrs43,845 lbAllan Burek